Bock, Minnesota
Current Conditions -  °F | °C
As of 6:25 AM on Tuesday 27 Jan 2015 (Local Time) from KJMR Reporting Station
Overcast Overcast  
Wind Chill: 32°   Ceiling: 1900
Heat Index: 32°   Visibility: 10mi
Dew Point: 25°   Wind: 0mph
Humidity: 75%   Direction: NA
Pressure: 30.12"   Gusts: NA
Location:  45.78°N, 93.56°W
Report Text: KJMR 271225Z AUTO 00000KT 10SM OVC019 00/M04 A3012 RMK AO2
Loading
Personal Weather Stations






























Interactive Weather Map New forecast layout! Learn more

10-Day Weather Forecast

Advertisements
Track Severe Weather on mobile